sensor_id;sensor_type;location;lat;lon;timestamp;temperature;humidity
22249;DHT22;67538;52.180;5.646;2023-04-07T00:00:24;8.50;99.90
22249;DHT22;67538;52.180;5.646;2023-04-07T00:02:51;8.50;99.90
22249;DHT22;67538;52.180;5.646;2023-04-07T00:05:18;8.50;99.90
22249;DHT22;67538;52.180;5.646;2023-04-07T00:07:45;8.50;99.90
22249;DHT22;67538;52.180;5.646;2023-04-07T00:10:12;8.50;99.90
22249;DHT22;67538;52.180;5.646;2023-04-07T00:12:41;8.50;99.90
22249;DHT22;67538;52.180;5.646;2023-04-07T00:15:09;8.50;99.90
22249;DHT22;67538;52.180;5.646;2023-04-07T00:17:36;8.50;99.90
22249;DHT22;67538;52.180;5.646;2023-04-07T00:20:03;8.50;99.90
22249;DHT22;67538;52.180;5.646;2023-04-07T00:22:31;8.50;99.90
22249;DHT22;67538;52.180;5.646;2023-04-07T00:24:58;8.40;99.90
22249;DHT22;67538;52.180;5.646;2023-04-07T00:27:25;8.40;99.90
22249;DHT22;67538;52.180;5.646;2023-04-07T00:29:54;8.30;99.90
22249;DHT22;67538;52.180;5.646;2023-04-07T00:32:21;8.30;99.90
22249;DHT22;67538;52.180;5.646;2023-04-07T00:34:48;8.30;99.90
22249;DHT22;67538;52.180;5.646;2023-04-07T00:37:15;8.30;99.90
22249;DHT22;67538;52.180;5.646;2023-04-07T00:39:43;8.30;99.90
22249;DHT22;67538;52.180;5.646;2023-04-07T00:42:10;8.20;99.90
22249;DHT22;67538;52.180;5.646;2023-04-07T00:44:38;8.30;99.90
22249;DHT22;67538;52.180;5.646;2023-04-07T00:47:06;8.20;99.90
22249;DHT22;67538;52.180;5.646;2023-04-07T00:49:33;8.30;99.90
22249;DHT22;67538;52.180;5.646;2023-04-07T00:52:00;8.20;99.90
22249;DHT22;67538;52.180;5.646;2023-04-07T00:54:29;8.20;99.90
22249;DHT22;67538;52.180;5.646;2023-04-07T00:56:56;8.20;99.90
22249;DHT22;67538;52.180;5.646;2023-04-07T00:59:24;8.20;99.90
22249;DHT22;67538;52.180;5.646;2023-04-07T01:01:57;8.20;99.90
22249;DHT22;67538;52.180;5.646;2023-04-07T01:04:32;8.10;99.90
22249;DHT22;67538;52.180;5.646;2023-04-07T01:07:04;8.10;99.90
22249;DHT22;67538;52.180;5.646;2023-04-07T01:09:36;8.20;99.90
22249;DHT22;67538;52.180;5.646;2023-04-07T01:12:09;8.20;99.90
22249;DHT22;67538;52.180;5.646;2023-04-07T01:14:44;8.20;99.90
22249;DHT22;67538;52.180;5.646;2023-04-07T01:17:13;8.20;99.90
22249;DHT22;67538;52.180;5.646;2023-04-07T01:19:47;8.20;99.90
22249;DHT22;67538;52.180;5.646;2023-04-07T01:22:25;8.10;99.90
22249;DHT22;67538;52.180;5.646;2023-04-07T01:25:26;8.10;99.90
22249;DHT22;67538;52.180;5.646;2023-04-07T01:28:14;8.10;99.90
22249;DHT22;67538;52.180;5.646;2023-04-07T01:30:44;8.10;99.90
22249;DHT22;67538;52.180;5.646;2023-04-07T01:33:13;8.10;99.90
22249;DHT22;67538;52.180;5.646;2023-04-07T01:35:42;8.10;99.90
22249;DHT22;67538;52.180;5.646;2023-04-07T01:38:10;8.10;99.90
22249;DHT22;67538;52.180;5.646;2023-04-07T01:40:38;8.10;99.90
22249;DHT22;67538;52.180;5.646;2023-04-07T01:43:06;8.10;99.90
22249;DHT22;67538;52.180;5.646;2023-04-07T01:45:34;8.10;99.90
22249;DHT22;67538;52.180;5.646;2023-04-07T01:48:05;8.10;99.90
22249;DHT22;67538;52.180;5.646;2023-04-07T01:50:33;8.10;99.90
22249;DHT22;67538;52.180;5.646;2023-04-07T01:53:00;8.10;99.90
22249;DHT22;67538;52.180;5.646;2023-04-07T01:55:29;8.10;99.90
22249;DHT22;67538;52.180;5.646;2023-04-07T01:57:56;8.20;99.90
22249;DHT22;67538;52.180;5.646;2023-04-07T02:00:23;8.20;99.90
22249;DHT22;67538;52.180;5.646;2023-04-07T02:02:54;8.20;99.90
22249;DHT22;67538;52.180;5.646;2023-04-07T02:05:27;8.20;99.90
22249;DHT22;67538;52.180;5.646;2023-04-07T02:07:59;8.10;99.90
22249;DHT22;67538;52.180;5.646;2023-04-07T02:10:28;8.20;99.90
22249;DHT22;67538;52.180;5.646;2023-04-07T02:12:57;8.20;99.90
22249;DHT22;67538;52.180;5.646;2023-04-07T02:15:26;8.20;99.90
22249;DHT22;67538;52.180;5.646;2023-04-07T02:17:53;8.20;99.90
22249;DHT22;67538;52.180;5.646;2023-04-07T02:20:23;8.20;99.90
22249;DHT22;67538;52.180;5.646;2023-04-07T02:22:51;8.20;99.90
22249;DHT22;67538;52.180;5.646;2023-04-07T02:25:24;8.20;99.90
22249;DHT22;67538;52.180;5.646;2023-04-07T02:27:52;8.20;99.90
22249;DHT22;67538;52.180;5.646;2023-04-07T02:30:20;8.10;99.90
22249;DHT22;67538;52.180;5.646;2023-04-07T02:32:47;8.20;99.90
22249;DHT22;67538;52.180;5.646;2023-04-07T02:35:14;8.10;99.90
22249;DHT22;67538;52.180;5.646;2023-04-07T02:37:42;8.10;99.90
22249;DHT22;67538;52.180;5.646;2023-04-07T02:40:11;8.10;99.90
22249;DHT22;67538;52.180;5.646;2023-04-07T02:42:38;8.10;99.90
22249;DHT22;67538;52.180;5.646;2023-04-07T02:45:06;8.10;99.90
22249;DHT22;67538;52.180;5.646;2023-04-07T02:47:34;8.10;99.90
22249;DHT22;67538;52.180;5.646;2023-04-07T02:50:02;8.10;99.90
22249;DHT22;67538;52.180;5.646;2023-04-07T02:52:29;8.20;99.90
22249;DHT22;67538;52.180;5.646;2023-04-07T02:54:56;8.10;99.90
22249;DHT22;67538;52.180;5.646;2023-04-07T02:57:24;8.20;99.90
22249;DHT22;67538;52.180;5.646;2023-04-07T02:59:51;8.20;99.90
22249;DHT22;67538;52.180;5.646;2023-04-07T03:02:19;8.20;99.90
22249;DHT22;67538;52.180;5.646;2023-04-07T03:04:46;8.20;99.90
22249;DHT22;67538;52.180;5.646;2023-04-07T03:07:13;8.20;99.90
22249;DHT22;67538;52.180;5.646;2023-04-07T03:09:40;8.20;99.90
22249;DHT22;67538;52.180;5.646;2023-04-07T03:12:07;8.20;99.90
22249;DHT22;67538;52.180;5.646;2023-04-07T03:14:36;8.20;99.90
22249;DHT22;67538;52.180;5.646;2023-04-07T03:17:03;8.20;99.90
22249;DHT22;67538;52.180;5.646;2023-04-07T03:19:30;8.20;99.90
22249;DHT22;67538;52.180;5.646;2023-04-07T03:21:57;8.20;99.90
22249;DHT22;67538;52.180;5.646;2023-04-07T03:24:25;8.10;99.90
22249;DHT22;67538;52.180;5.646;2023-04-07T03:26:52;8.10;99.90
22249;DHT22;67538;52.180;5.646;2023-04-07T03:29:19;8.20;99.90
22249;DHT22;67538;52.180;5.646;2023-04-07T03:31:47;8.20;99.90
22249;DHT22;67538;52.180;5.646;2023-04-07T03:34:14;8.20;99.90
22249;DHT22;67538;52.180;5.646;2023-04-07T03:36:41;8.20;99.90
22249;DHT22;67538;52.180;5.646;2023-04-07T03:39:08;8.20;99.90
22249;DHT22;67538;52.180;5.646;2023-04-07T03:41:35;8.20;99.90
22249;DHT22;67538;52.180;5.646;2023-04-07T03:44:02;8.20;99.90
22249;DHT22;67538;52.180;5.646;2023-04-07T03:46:30;8.20;99.90
22249;DHT22;67538;52.180;5.646;2023-04-07T03:48:58;8.20;99.90
22249;DHT22;67538;52.180;5.646;2023-04-07T03:51:25;8.20;99.90
22249;DHT22;67538;52.180;5.646;2023-04-07T03:53:53;8.20;99.90
22249;DHT22;67538;52.180;5.646;2023-04-07T03:56:20;8.20;99.90
22249;DHT22;67538;52.180;5.646;2023-04-07T03:58:47;8.20;99.90
22249;DHT22;67538;52.180;5.646;2023-04-07T04:01:14;8.20;99.90
22249;DHT22;67538;52.180;5.646;2023-04-07T04:03:42;8.20;99.90
22249;DHT22;67538;52.180;5.646;2023-04-07T04:06:10;8.20;99.90
22249;DHT22;67538;52.180;5.646;2023-04-07T04:08:37;8.20;99.90
22249;DHT22;67538;52.180;5.646;2023-04-07T04:11:04;8.20;99.90
22249;DHT22;67538;52.180;5.646;2023-04-07T04:13:31;8.10;99.90
22249;DHT22;67538;52.180;5.646;2023-04-07T04:15:58;8.20;99.90
22249;DHT22;67538;52.180;5.646;2023-04-07T04:18:25;8.10;99.90
22249;DHT22;67538;52.180;5.646;2023-04-07T04:20:52;8.10;99.90
22249;DHT22;67538;52.180;5.646;2023-04-07T04:23:21;8.10;99.90
22249;DHT22;67538;52.180;5.646;2023-04-07T04:25:48;8.10;99.90
22249;DHT22;67538;52.180;5.646;2023-04-07T04:28:15;8.10;99.90
22249;DHT22;67538;52.180;5.646;2023-04-07T04:30:42;8.10;99.90
22249;DHT22;67538;52.180;5.646;2023-04-07T04:33:09;8.10;99.90
22249;DHT22;67538;52.180;5.646;2023-04-07T04:35:36;8.10;99.90
22249;DHT22;67538;52.180;5.646;2023-04-07T04:38:03;8.10;99.90
22249;DHT22;67538;52.180;5.646;2023-04-07T04:40:31;8.10;99.90
22249;DHT22;67538;52.180;5.646;2023-04-07T04:42:58;8.10;99.90
22249;DHT22;67538;52.180;5.646;2023-04-07T04:45:25;8.20;99.90
22249;DHT22;67538;52.180;5.646;2023-04-07T04:47:52;8.20;99.90
22249;DHT22;67538;52.180;5.646;2023-04-07T04:50:20;8.20;99.90
22249;DHT22;67538;52.180;5.646;2023-04-07T04:52:47;8.20;99.90
22249;DHT22;67538;52.180;5.646;2023-04-07T04:55:14;8.20;99.90
22249;DHT22;67538;52.180;5.646;2023-04-07T04:57:42;8.20;99.90
22249;DHT22;67538;52.180;5.646;2023-04-07T05:00:10;8.20;99.90
22249;DHT22;67538;52.180;5.646;2023-04-07T05:02:37;8.20;99.90
22249;DHT22;67538;52.180;5.646;2023-04-07T05:05:05;8.20;99.90
22249;DHT22;67538;52.180;5.646;2023-04-07T05:07:33;8.20;99.90
22249;DHT22;67538;52.180;5.646;2023-04-07T05:10:00;8.20;99.90
22249;DHT22;67538;52.180;5.646;2023-04-07T05:12:27;8.20;99.90
22249;DHT22;67538;52.180;5.646;2023-04-07T05:14:55;8.20;99.90
22249;DHT22;67538;52.180;5.646;2023-04-07T05:17:22;8.10;99.90
22249;DHT22;67538;52.180;5.646;2023-04-07T05:19:50;8.10;99.90
22249;DHT22;67538;52.180;5.646;2023-04-07T05:22:17;8.10;99.90
22249;DHT22;67538;52.180;5.646;2023-04-07T05:24:44;8.10;99.90
22249;DHT22;67538;52.180;5.646;2023-04-07T05:27:11;8.10;99.90
22249;DHT22;67538;52.180;5.646;2023-04-07T05:29:38;8.10;99.90
22249;DHT22;67538;52.180;5.646;2023-04-07T05:32:06;8.10;99.90
22249;DHT22;67538;52.180;5.646;2023-04-07T05:34:33;8.10;99.90
22249;DHT22;67538;52.180;5.646;2023-04-07T05:37:01;8.10;99.90
22249;DHT22;67538;52.180;5.646;2023-04-07T05:39:28;8.10;99.90
22249;DHT22;67538;52.180;5.646;2023-04-07T05:41:55;8.10;99.90
22249;DHT22;67538;52.180;5.646;2023-04-07T05:44:22;8.10;99.90
22249;DHT22;67538;52.180;5.646;2023-04-07T05:46:49;8.10;99.90
22249;DHT22;67538;52.180;5.646;2023-04-07T05:49:18;8.10;99.90
22249;DHT22;67538;52.180;5.646;2023-04-07T05:51:45;8.10;99.90
22249;DHT22;67538;52.180;5.646;2023-04-07T05:54:12;8.10;99.90
22249;DHT22;67538;52.180;5.646;2023-04-07T05:56:39;8.10;99.90
22249;DHT22;67538;52.180;5.646;2023-04-07T05:59:06;8.10;99.90
22249;DHT22;67538;52.180;5.646;2023-04-07T06:01:33;8.20;99.90
22249;DHT22;67538;52.180;5.646;2023-04-07T06:04:00;8.10;99.90
22249;DHT22;67538;52.180;5.646;2023-04-07T06:06:29;8.10;99.90
22249;DHT22;67538;52.180;5.646;2023-04-07T06:08:56;8.20;99.90
22249;DHT22;67538;52.180;5.646;2023-04-07T06:11:24;8.20;99.90
22249;DHT22;67538;52.180;5.646;2023-04-07T06:13:51;8.20;99.90
22249;DHT22;67538;52.180;5.646;2023-04-07T06:16:18;8.20;99.90
22249;DHT22;67538;52.180;5.646;2023-04-07T06:18:45;8.30;99.90
22249;DHT22;67538;52.180;5.646;2023-04-07T06:21:12;8.30;99.90
22249;DHT22;67538;52.180;5.646;2023-04-07T06:23:40;8.30;99.90
22249;DHT22;67538;52.180;5.646;2023-04-07T06:26:09;8.30;99.90
22249;DHT22;67538;52.180;5.646;2023-04-07T06:28:37;8.30;99.90
22249;DHT22;67538;52.180;5.646;2023-04-07T06:31:04;8.40;99.90
22249;DHT22;67538;52.180;5.646;2023-04-07T06:33:31;8.30;99.90
22249;DHT22;67538;52.180;5.646;2023-04-07T06:35:58;8.40;99.90
22249;DHT22;67538;52.180;5.646;2023-04-07T06:38:26;8.40;99.90
22249;DHT22;67538;52.180;5.646;2023-04-07T06:40:54;8.40;99.90
22249;DHT22;67538;52.180;5.646;2023-04-07T06:43:21;8.40;99.90
22249;DHT22;67538;52.180;5.646;2023-04-07T06:45:48;8.40;99.90
22249;DHT22;67538;52.180;5.646;2023-04-07T06:48:15;8.50;99.90
22249;DHT22;67538;52.180;5.646;2023-04-07T06:50:45;8.50;99.90
22249;DHT22;67538;52.180;5.646;2023-04-07T06:53:12;8.50;99.90
22249;DHT22;67538;52.180;5.646;2023-04-07T06:55:39;8.50;99.90
22249;DHT22;67538;52.180;5.646;2023-04-07T06:58:07;8.50;99.90
22249;DHT22;67538;52.180;5.646;2023-04-07T07:00:35;8.50;99.90
22249;DHT22;67538;52.180;5.646;2023-04-07T07:03:02;8.60;99.90
22249;DHT22;67538;52.180;5.646;2023-04-07T07:05:29;8.50;99.90
22249;DHT22;67538;52.180;5.646;2023-04-07T07:07:56;8.60;99.90
22249;DHT22;67538;52.180;5.646;2023-04-07T07:10:23;8.60;99.90
22249;DHT22;67538;52.180;5.646;2023-04-07T07:12:50;8.50;99.90
22249;DHT22;67538;52.180;5.646;2023-04-07T07:15:19;8.50;99.90
22249;DHT22;67538;52.180;5.646;2023-04-07T07:17:46;8.60;99.90
22249;DHT22;67538;52.180;5.646;2023-04-07T07:20:13;8.60;99.90
22249;DHT22;67538;52.180;5.646;2023-04-07T07:22:40;8.70;99.90
22249;DHT22;67538;52.180;5.646;2023-04-07T07:25:07;8.70;99.90
22249;DHT22;67538;52.180;5.646;2023-04-07T07:27:34;8.70;99.90
22249;DHT22;67538;52.180;5.646;2023-04-07T07:30:02;8.70;99.90
22249;DHT22;67538;52.180;5.646;2023-04-07T07:32:30;8.70;99.90
22249;DHT22;67538;52.180;5.646;2023-04-07T07:34:57;8.80;99.90
22249;DHT22;67538;52.180;5.646;2023-04-07T07:37:25;8.90;99.90
22249;DHT22;67538;52.180;5.646;2023-04-07T07:39:52;9.00;99.90
22249;DHT22;67538;52.180;5.646;2023-04-07T07:42:20;9.10;99.90
22249;DHT22;67538;52.180;5.646;2023-04-07T07:44:47;9.10;99.90
22249;DHT22;67538;52.180;5.646;2023-04-07T07:47:15;9.20;99.90
22249;DHT22;67538;52.180;5.646;2023-04-07T07:49:44;9.30;99.90
22249;DHT22;67538;52.180;5.646;2023-04-07T07:52:11;9.40;99.90
22249;DHT22;67538;52.180;5.646;2023-04-07T07:54:38;9.50;99.90
22249;DHT22;67538;52.180;5.646;2023-04-07T07:57:05;9.40;99.90
22249;DHT22;67538;52.180;5.646;2023-04-07T07:59:32;9.40;99.90
22249;DHT22;67538;52.180;5.646;2023-04-07T08:01:59;9.40;99.90
22249;DHT22;67538;52.180;5.646;2023-04-07T08:04:27;9.40;99.90
22249;DHT22;67538;52.180;5.646;2023-04-07T08:06:55;9.40;99.90
22249;DHT22;67538;52.180;5.646;2023-04-07T08:09:23;9.50;99.90
22249;DHT22;67538;52.180;5.646;2023-04-07T08:11:50;9.50;99.90
22249;DHT22;67538;52.180;5.646;2023-04-07T08:14:17;9.70;99.90
22249;DHT22;67538;52.180;5.646;2023-04-07T08:16:45;9.80;99.90
22249;DHT22;67538;52.180;5.646;2023-04-07T08:19:12;9.80;99.90
22249;DHT22;67538;52.180;5.646;2023-04-07T08:21:39;9.90;99.90
22249;DHT22;67538;52.180;5.646;2023-04-07T08:24:08;9.90;99.90
22249;DHT22;67538;52.180;5.646;2023-04-07T08:26:36;10.00;99.90
22249;DHT22;67538;52.180;5.646;2023-04-07T08:29:03;9.90;99.90
22249;DHT22;67538;52.180;5.646;2023-04-07T08:31:30;10.00;99.90
22249;DHT22;67538;52.180;5.646;2023-04-07T08:33:57;9.90;99.90
22249;DHT22;67538;52.180;5.646;2023-04-07T08:36:24;9.80;99.90
22249;DHT22;67538;52.180;5.646;2023-04-07T08:38:52;9.70;99.90
22249;DHT22;67538;52.180;5.646;2023-04-07T08:41:26;9.60;99.90
22249;DHT22;67538;52.180;5.646;2023-04-07T08:43:56;9.60;99.90
22249;DHT22;67538;52.180;5.646;2023-04-07T08:46:24;9.50;99.90
22249;DHT22;67538;52.180;5.646;2023-04-07T08:48:52;9.50;99.90
22249;DHT22;67538;52.180;5.646;2023-04-07T08:51:26;9.40;99.90
22249;DHT22;67538;52.180;5.646;2023-04-07T08:53:59;9.40;99.90
22249;DHT22;67538;52.180;5.646;2023-04-07T08:56:28;9.40;99.90
22249;DHT22;67538;52.180;5.646;2023-04-07T08:58:55;9.50;99.90
22249;DHT22;67538;52.180;5.646;2023-04-07T09:01:23;9.50;99.90
22249;DHT22;67538;52.180;5.646;2023-04-07T09:03:51;9.50;99.90
22249;DHT22;67538;52.180;5.646;2023-04-07T09:06:19;9.60;99.90
22249;DHT22;67538;52.180;5.646;2023-04-07T09:08:46;9.60;99.90
22249;DHT22;67538;52.180;5.646;2023-04-07T09:11:13;9.70;99.90
22249;DHT22;67538;52.180;5.646;2023-04-07T09:13:41;9.70;99.90
22249;DHT22;67538;52.180;5.646;2023-04-07T09:16:08;9.80;99.90
22249;DHT22;67538;52.180;5.646;2023-04-07T09:18:35;9.90;99.90
22249;DHT22;67538;52.180;5.646;2023-04-07T09:21:03;10.00;99.90
22249;DHT22;67538;52.180;5.646;2023-04-07T09:23:34;10.00;99.90
22249;DHT22;67538;52.180;5.646;2023-04-07T09:26:18;9.90;99.90
22249;DHT22;67538;52.180;5.646;2023-04-07T09:28:48;9.90;99.90
22249;DHT22;67538;52.180;5.646;2023-04-07T09:31:16;9.80;99.90
22249;DHT22;67538;52.180;5.646;2023-04-07T09:33:44;9.80;99.90
22249;DHT22;67538;52.180;5.646;2023-04-07T09:36:11;9.80;99.90
22249;DHT22;67538;52.180;5.646;2023-04-07T09:38:39;9.70;99.90
22249;DHT22;67538;52.180;5.646;2023-04-07T09:41:07;9.70;99.90
22249;DHT22;67538;52.180;5.646;2023-04-07T09:43:36;9.70;99.90
22249;DHT22;67538;52.180;5.646;2023-04-07T09:46:13;9.60;99.90
22249;DHT22;67538;52.180;5.646;2023-04-07T09:48:41;9.60;99.90
22249;DHT22;67538;52.180;5.646;2023-04-07T09:51:10;9.60;99.90
22249;DHT22;67538;52.180;5.646;2023-04-07T09:53:42;9.60;99.90
22249;DHT22;67538;52.180;5.646;2023-04-07T09:56:09;9.60;99.90
22249;DHT22;67538;52.180;5.646;2023-04-07T09:58:38;9.50;99.90
22249;DHT22;67538;52.180;5.646;2023-04-07T10:01:06;9.50;99.90
22249;DHT22;67538;52.180;5.646;2023-04-07T10:03:36;9.50;99.90
22249;DHT22;67538;52.180;5.646;2023-04-07T10:06:04;9.50;99.90
22249;DHT22;67538;52.180;5.646;2023-04-07T10:08:33;9.40;99.90
22249;DHT22;67538;52.180;5.646;2023-04-07T10:11:01;9.50;99.90
22249;DHT22;67538;52.180;5.646;2023-04-07T10:13:28;9.50;99.90
22249;DHT22;67538;52.180;5.646;2023-04-07T10:15:57;9.50;99.90
22249;DHT22;67538;52.180;5.646;2023-04-07T10:18:27;9.60;99.90
22249;DHT22;67538;52.180;5.646;2023-04-07T10:20:57;9.60;99.90
22249;DHT22;67538;52.180;5.646;2023-04-07T10:23:33;9.70;99.90
22249;DHT22;67538;52.180;5.646;2023-04-07T10:26:04;9.70;99.90
22249;DHT22;67538;52.180;5.646;2023-04-07T10:28:33;9.70;99.90
22249;DHT22;67538;52.180;5.646;2023-04-07T10:31:01;9.70;99.90
22249;DHT22;67538;52.180;5.646;2023-04-07T10:33:45;9.70;99.90
22249;DHT22;67538;52.180;5.646;2023-04-07T10:36:15;9.70;99.90
22249;DHT22;67538;52.180;5.646;2023-04-07T10:39:18;9.60;99.90
22249;DHT22;67538;52.180;5.646;2023-04-07T10:41:45;9.60;99.90
22249;DHT22;67538;52.180;5.646;2023-04-07T10:44:44;9.60;99.90
22249;DHT22;67538;52.180;5.646;2023-04-07T10:47:12;9.70;99.90
22249;DHT22;67538;52.180;5.646;2023-04-07T10:52:47;9.70;99.90
22249;DHT22;67538;52.180;5.646;2023-04-07T10:55:32;9.80;99.90
22249;DHT22;67538;52.180;5.646;2023-04-07T10:58:26;9.80;99.90
22249;DHT22;67538;52.180;5.646;2023-04-07T11:01:16;9.90;99.90
22249;DHT22;67538;52.180;5.646;2023-04-07T11:03:57;10.00;99.90
22249;DHT22;67538;52.180;5.646;2023-04-07T11:06:26;10.10;99.90
22249;DHT22;67538;52.180;5.646;2023-04-07T11:08:54;10.10;99.90
22249;DHT22;67538;52.180;5.646;2023-04-07T11:11:39;10.20;99.90
22249;DHT22;67538;52.180;5.646;2023-04-07T11:14:06;10.20;99.90
22249;DHT22;67538;52.180;5.646;2023-04-07T11:16:42;10.10;99.90
22249;DHT22;67538;52.180;5.646;2023-04-07T11:19:10;10.10;99.90
22249;DHT22;67538;52.180;5.646;2023-04-07T11:21:37;10.10;99.90
22249;DHT22;67538;52.180;5.646;2023-04-07T11:24:06;10.10;99.90
22249;DHT22;67538;52.180;5.646;2023-04-07T11:26:40;10.10;99.90
22249;DHT22;67538;52.180;5.646;2023-04-07T11:29:08;10.10;99.90
22249;DHT22;67538;52.180;5.646;2023-04-07T11:31:37;10.10;99.90
22249;DHT22;67538;52.180;5.646;2023-04-07T11:34:04;10.10;99.90
22249;DHT22;67538;52.180;5.646;2023-04-07T11:36:33;10.10;99.90
22249;DHT22;67538;52.180;5.646;2023-04-07T11:39:01;10.10;99.90
22249;DHT22;67538;52.180;5.646;2023-04-07T11:41:31;10.00;99.90
22249;DHT22;67538;52.180;5.646;2023-04-07T11:44:09;10.00;99.90
22249;DHT22;67538;52.180;5.646;2023-04-07T11:46:40;10.00;99.90
22249;DHT22;67538;52.180;5.646;2023-04-07T11:49:17;10.00;99.90
22249;DHT22;67538;52.180;5.646;2023-04-07T11:51:45;10.00;99.90
22249;DHT22;67538;52.180;5.646;2023-04-07T11:54:12;10.00;99.90
22249;DHT22;67538;52.180;5.646;2023-04-07T11:56:43;10.00;99.90
22249;DHT22;67538;52.180;5.646;2023-04-07T11:59:18;10.00;99.90
22249;DHT22;67538;52.180;5.646;2023-04-07T12:01:47;10.00;99.90
22249;DHT22;67538;52.180;5.646;2023-04-07T12:04:15;10.00;99.90
22249;DHT22;67538;52.180;5.646;2023-04-07T12:06:43;10.00;99.90
22249;DHT22;67538;52.180;5.646;2023-04-07T12:09:25;10.10;99.90
22249;DHT22;67538;52.180;5.646;2023-04-07T12:11:55;10.10;99.90
22249;DHT22;67538;52.180;5.646;2023-04-07T12:14:23;10.10;99.90
22249;DHT22;67538;52.180;5.646;2023-04-07T12:16:50;10.10;99.90
22249;DHT22;67538;52.180;5.646;2023-04-07T12:19:21;10.10;99.90
22249;DHT22;67538;52.180;5.646;2023-04-07T12:21:48;10.20;99.90
22249;DHT22;67538;52.180;5.646;2023-04-07T12:24:15;10.20;99.90
22249;DHT22;67538;52.180;5.646;2023-04-07T12:26:42;10.20;99.90
22249;DHT22;67538;52.180;5.646;2023-04-07T12:29:10;10.20;99.90
22249;DHT22;67538;52.180;5.646;2023-04-07T12:31:37;10.10;99.90
22249;DHT22;67538;52.180;5.646;2023-04-07T12:34:05;10.10;99.90
22249;DHT22;67538;52.180;5.646;2023-04-07T12:36:32;10.00;99.90
22249;DHT22;67538;52.180;5.646;2023-04-07T12:38:59;10.00;99.90
22249;DHT22;67538;52.180;5.646;2023-04-07T12:41:26;10.00;99.90
22249;DHT22;67538;52.180;5.646;2023-04-07T12:43:54;10.00;99.90
22249;DHT22;67538;52.180;5.646;2023-04-07T12:46:22;10.10;99.90
22249;DHT22;67538;52.180;5.646;2023-04-07T12:48:49;10.10;99.90
22249;DHT22;67538;52.180;5.646;2023-04-07T12:51:16;10.20;99.90
22249;DHT22;67538;52.180;5.646;2023-04-07T12:53:43;10.30;99.90
22249;DHT22;67538;52.180;5.646;2023-04-07T12:56:12;10.40;99.90
22249;DHT22;67538;52.180;5.646;2023-04-07T12:58:39;10.50;99.90
22249;DHT22;67538;52.180;5.646;2023-04-07T13:01:06;10.40;99.90
22249;DHT22;67538;52.180;5.646;2023-04-07T13:03:34;10.40;99.90
22249;DHT22;67538;52.180;5.646;2023-04-07T13:06:01;10.40;99.90
22249;DHT22;67538;52.180;5.646;2023-04-07T13:08:29;10.40;99.90
22249;DHT22;67538;52.180;5.646;2023-04-07T13:10:56;10.40;99.90
22249;DHT22;67538;52.180;5.646;2023-04-07T13:13:23;10.50;99.90
22249;DHT22;67538;52.180;5.646;2023-04-07T13:15:50;10.60;99.90
22249;DHT22;67538;52.180;5.646;2023-04-07T13:18:17;10.60;99.90
22249;DHT22;67538;52.180;5.646;2023-04-07T13:20:46;10.60;99.90
22249;DHT22;67538;52.180;5.646;2023-04-07T13:23:13;10.60;99.90
22249;DHT22;67538;52.180;5.646;2023-04-07T13:25:40;10.60;99.90
22249;DHT22;67538;52.180;5.646;2023-04-07T13:28:07;10.60;99.90
22249;DHT22;67538;52.180;5.646;2023-04-07T13:30:34;10.60;99.90
22249;DHT22;67538;52.180;5.646;2023-04-07T13:33:01;10.70;99.90
22249;DHT22;67538;52.180;5.646;2023-04-07T13:35:28;10.70;99.90
22249;DHT22;67538;52.180;5.646;2023-04-07T13:38:01;10.70;99.90
22249;DHT22;67538;52.180;5.646;2023-04-07T13:40:29;10.70;99.90
22249;DHT22;67538;52.180;5.646;2023-04-07T13:42:56;10.70;99.90
22249;DHT22;67538;52.180;5.646;2023-04-07T13:45:25;10.70;99.90
22249;DHT22;67538;52.180;5.646;2023-04-07T13:47:52;10.70;99.90
22249;DHT22;67538;52.180;5.646;2023-04-07T13:50:19;10.70;99.90
22249;DHT22;67538;52.180;5.646;2023-04-07T13:52:46;10.60;99.90
22249;DHT22;67538;52.180;5.646;2023-04-07T13:55:15;10.60;99.90
22249;DHT22;67538;52.180;5.646;2023-04-07T13:57:44;10.60;99.90
22249;DHT22;67538;52.180;5.646;2023-04-07T14:00:12;10.60;99.90
22249;DHT22;67538;52.180;5.646;2023-04-07T14:02:40;10.50;99.90
22249;DHT22;67538;52.180;5.646;2023-04-07T14:05:07;10.50;99.90
22249;DHT22;67538;52.180;5.646;2023-04-07T14:07:34;10.50;99.90
22249;DHT22;67538;52.180;5.646;2023-04-07T14:10:01;10.50;99.90
22249;DHT22;67538;52.180;5.646;2023-04-07T14:12:30;10.60;99.90
22249;DHT22;67538;52.180;5.646;2023-04-07T14:14:57;10.60;99.90
22249;DHT22;67538;52.180;5.646;2023-04-07T14:17:24;10.70;99.90
22249;DHT22;67538;52.180;5.646;2023-04-07T14:19:51;10.70;99.90
22249;DHT22;67538;52.180;5.646;2023-04-07T14:22:18;10.70;99.90
22249;DHT22;67538;52.180;5.646;2023-04-07T14:24:45;10.70;99.90
22249;DHT22;67538;52.180;5.646;2023-04-07T14:27:12;10.70;99.90
22249;DHT22;67538;52.180;5.646;2023-04-07T14:29:46;10.60;99.90
22249;DHT22;67538;52.180;5.646;2023-04-07T14:32:13;10.60;99.90
22249;DHT22;67538;52.180;5.646;2023-04-07T14:34:40;10.60;99.90
22249;DHT22;67538;52.180;5.646;2023-04-07T14:37:07;10.50;99.90
22249;DHT22;67538;52.180;5.646;2023-04-07T14:39:34;10.50;99.90
22249;DHT22;67538;52.180;5.646;2023-04-07T14:42:02;10.50;99.90
22249;DHT22;67538;52.180;5.646;2023-04-07T14:44:29;10.50;99.90
22249;DHT22;67538;52.180;5.646;2023-04-07T14:46:57;10.50;99.90
22249;DHT22;67538;52.180;5.646;2023-04-07T14:49:26;10.50;99.90
22249;DHT22;67538;52.180;5.646;2023-04-07T14:51:54;10.40;99.90
22249;DHT22;67538;52.180;5.646;2023-04-07T14:54:21;10.40;99.90
22249;DHT22;67538;52.180;5.646;2023-04-07T14:56:48;10.40;99.90
22249;DHT22;67538;52.180;5.646;2023-04-07T14:59:15;10.30;99.90
22249;DHT22;67538;52.180;5.646;2023-04-07T15:01:42;10.30;99.90
22249;DHT22;67538;52.180;5.646;2023-04-07T15:04:10;10.30;99.90
22249;DHT22;67538;52.180;5.646;2023-04-07T15:06:39;10.30;99.90
22249;DHT22;67538;52.180;5.646;2023-04-07T15:09:07;10.40;99.90
22249;DHT22;67538;52.180;5.646;2023-04-07T15:11:34;10.50;99.90
22249;DHT22;67538;52.180;5.646;2023-04-07T15:14:01;10.40;99.90
22249;DHT22;67538;52.180;5.646;2023-04-07T15:16:28;10.40;99.90
22249;DHT22;67538;52.180;5.646;2023-04-07T15:18:55;10.40;99.90
22249;DHT22;67538;52.180;5.646;2023-04-07T15:21:24;10.40;99.90
22249;DHT22;67538;52.180;5.646;2023-04-07T15:23:52;10.30;99.90
22249;DHT22;67538;52.180;5.646;2023-04-07T15:26:19;10.20;99.90
22249;DHT22;67538;52.180;5.646;2023-04-07T15:28:46;10.30;99.90
22249;DHT22;67538;52.180;5.646;2023-04-07T15:31:13;10.20;99.90
22249;DHT22;67538;52.180;5.646;2023-04-07T15:33:40;10.20;99.90
22249;DHT22;67538;52.180;5.646;2023-04-07T15:36:09;10.10;99.90
22249;DHT22;67538;52.180;5.646;2023-04-07T15:38:37;10.10;99.90
22249;DHT22;67538;52.180;5.646;2023-04-07T15:41:05;10.00;99.90
22249;DHT22;67538;52.180;5.646;2023-04-07T15:43:32;10.00;99.90
22249;DHT22;67538;52.180;5.646;2023-04-07T15:46:00;10.00;99.90
22249;DHT22;67538;52.180;5.646;2023-04-07T15:48:27;10.00;99.90
22249;DHT22;67538;52.180;5.646;2023-04-07T15:50:54;10.00;99.90
22249;DHT22;67538;52.180;5.646;2023-04-07T15:53:21;10.00;99.90